Flight Track Log - Related Links

Times and Time Zones

All times are in EDT time to prevent confusion due to time zone crossing. See the JBU33 flight status page for this flight to view local times or setup timezone preferences in your user account.

Time Position Orientation Groundspeed Altitude Reporting Facility
EDT Latitude Longitude Course Direction KTS MPH feet Rate Location/Type
Wed 01:13:00 PM 44.1567 -73.2663 195° South  Level FlightAware Approximate
Wed 01:13:40 PM 44.2589 -73.1908 196° South 281 323 9,600  Level Boston Center
Wed 01:14:00 PM 44.0787 -73.2955 195° South  Level FlightAware Approximate
Wed 01:14:40 PM 44.1836 -73.2217 196° South 287 330 11,300  Level Boston Center
Wed 01:15:00 PM 44.0003 -73.3222 194° South  Level FlightAware Approximate
Wed 01:15:40 PM 44.0939 -73.2611 198° South 314 361 14,000  Level Boston Center
Wed 01:16:00 PM 43.9217 -73.3483 193° South  Level FlightAware Approximate
Wed 01:16:40 PM 43.9997 -73.2972 195° South 337 388 16,400  Level Boston Center
Wed 01:17:00 PM 43.8441 -73.3792 196° South  Level FlightAware Approximate
Wed 01:17:40 PM 43.9161 -73.3336 197° South 344 396 19,100  Level Boston Center
Wed 01:18:00 PM 43.7666 -73.4102 196° South  Level FlightAware Approximate
Wed 01:18:40 PM 43.8219 -73.3725 197° South 349 402 21,100  Level Boston Center
Wed 01:19:40 PM 43.7197 -73.4139 196° South 372 428 22,900 1,450 Climbing Boston Center
Wed 01:20:40 PM 43.6067 -73.4581 196° South 384 442 24,000 550 Climbing Boston Center
Wed 01:21:40 PM 43.5022 -73.5019 197° South 391 450 24,000  Level Boston Center
Wed 01:22:40 PM 43.3933 -73.5458 196° South 405 466 24,000  Level Boston Center
Wed 01:23:40 PM 43.2844 -73.5867 195° South 405 466 24,000  Level Boston Center
Wed 01:24:40 PM 43.1800 -73.6303 197° South 405 466 24,000  Level Boston Center
Wed 01:25:40 PM 43.0836 -73.6711 197° South 405 466 24,000  Level Boston Center
Wed 01:26:40 PM 42.9811 -73.7144 197° South 400 460 24,000  Level Boston Center
Wed 01:27:40 PM 42.8742 -73.7547 195° South 400 460 24,000  Level Boston Center
Wed 01:28:40 PM 42.7675 -73.7975 196° South 405 466 24,000  Level Boston Center
Wed 01:29:40 PM 42.6547 -73.8092 184° South 399 459 24,000  Level Boston Center
Wed 01:30:40 PM 42.5339 -73.8122 181° South 399 459 24,000  Level Boston Center
Wed 01:31:40 PM 42.4211 -73.8153 181° South 404 465 24,000  Level Boston Center
Wed 01:32:40 PM 42.3086 -73.8158 180° South 404 465 24,000  Level Boston Center
Wed 01:33:40 PM 42.1961 -73.8161 180° South 404 465 24,000  Level Boston Center
Wed 01:34:40 PM 42.0853 -73.8444 191° South 404 465 24,000  Level Boston Center
Wed 01:35:40 PM 41.9764 -73.8811 194° South 404 465 24,000  Level Boston Center
Wed 01:36:40 PM 41.8697 -73.9150 193° South 404 465 24,000 -155 Level Boston Center
Wed 01:38:15 PM 41.7014 -73.9661 193° South 413 475 23,600 -581 Descending New York Center
Wed 01:39:15 PM 41.6069 -73.9922 192° South 378 435 22,500 -1,041 Descending New York Center
Wed 01:40:16 PM 41.5272 -74.0214 195° South 341 392 21,500 -1,000 Descending New York Center
Wed 01:41:15 PM 41.4411 -74.0450 192° South 336 387 20,500 -756 Descending New York Center
Wed 01:42:15 PM 41.3564 -74.0906 202° Southwest 336 387 20,000 -250 Descending New York Center
Wed 01:43:15 PM 41.2819 -74.1531 212° Southwest 323 372 20,000  Level New York Center
Wed 01:44:17 PM 41.2253 -74.2414 230° Southwest 317 365 20,000  Level New York Center
Wed 01:45:17 PM 41.1767 -74.3325 235° Southwest 312 359 20,000  Level New York Center
Wed 01:46:17 PM 41.1278 -74.4264 235° Southwest 312 359 20,000  Level New York Center
Wed 01:47:15 PM 41.0750 -74.5172 232° Southwest 312 359 20,000  Level New York Center
Wed 01:48:15 PM 41.0047 -74.5708 210° Southwest 298 343 20,000 -50 Level New York Center
Wed 01:49:16 PM 40.9517 -74.4664 124° Southeast 221 254 19,900 -393 Descending New York Center
Wed 01:50:17 PM 40.9350 -74.3308 99° East 255 293 19,200 -486 Descending New York Center
Wed 01:51:07 PM 40.9167 -74.2000 100° East 369 425 19,000 -600 Descending New York TRACON
Wed 01:52:07 PM 40.8833 -74.0833 111° Southeast 355 409 18,100 -1,400 Descending New York TRACON
Wed 01:53:07 PM 40.8333 -73.9667 119° Southeast 357 411 16,200 -1,916 Descending New York TRACON
Wed 01:54:06 PM 40.8000 -73.8333 108° East 358 412 14,300 -1,684 Descending New York TRACON
Wed 01:55:01 PM 40.7667 -73.7333 114° Southeast 362 417 13,000 -678 Descending New York TRACON
Wed 01:56:01 PM 40.7167 -73.6167 119° Southeast 363 418 13,000 -96 Level New York TRACON
Wed 01:57:06 PM 40.6500 -73.5333 137° Southeast 343 395 12,800 -905 Descending New York TRACON
Wed 01:58:07 PM 40.5667 -73.5167 171° South 307 353 11,100 -1,785 Descending New York TRACON
Wed 01:59:07 PM 40.5000 -73.5500 201° Southwest 279 321 9,200 -1,800 Descending New York TRACON
Wed 02:00:07 PM 40.4333 -73.6000 210° Southwest 262 302 7,500 -1,900 Descending New York TRACON
Wed 02:01:07 PM 40.4000 -73.6833 242° Southwest 251 289 5,400 -1,750 Descending New York TRACON
Wed 02:02:07 PM 40.3667 -73.7667 242° Southwest 249 287 4,000 -700 Descending New York TRACON
Wed 02:03:07 PM 40.3500 -73.8500 255° West 252 290 4,000 -400 Level New York TRACON
Wed 02:04:07 PM 40.3667 -73.9167 288° West 234 269 3,200 -500 Descending New York TRACON
Wed 02:05:07 PM 40.4000 -73.9667 311° West 224 258 3,000 -105 Descending New York TRACON
Wed 02:06:01 PM 40.4667 -73.9667 360° North 226 260 3,000  Level New York TRACON
Wed 02:07:07 PM 40.5333 -73.9667 360° North 197 227 3,000 -524 Level New York TRACON
Wed 02:08:07 PM 40.5833 -73.9167 37° Northeast 207 238 1,900 -800 Descending New York TRACON
Wed 02:09:07 PM 40.6167 -73.8833 37° Northeast 169 194 1,400 -400 Descending New York TRACON
Wed 02:10:07 PM 40.6500 -73.8667 21° North 147 169 1,100 -450 Descending New York TRACON
Wed 02:11:07 PM 40.6667 -73.8167 66° East 140 161 500 -600 Descending New York TRACON

Login

Don't have an account? Register now (free) for customized features, flight alerts, and more!